sensor_id;sensor_type;location;lat;lon;timestamp;P1;durP1;ratioP1;P2;durP2;ratioP2
5965;SDS011;3009;43.224;27.976;2024-01-15T00:01:50;6.00;;;4.77;;
5965;SDS011;3009;43.224;27.976;2024-01-15T00:04:19;6.70;;;4.03;;
5965;SDS011;3009;43.224;27.976;2024-01-15T00:06:48;5.37;;;4.40;;
5965;SDS011;3009;43.224;27.976;2024-01-15T00:09:17;12.60;;;6.20;;
5965;SDS011;3009;43.224;27.976;2024-01-15T00:11:45;8.33;;;5.33;;
5965;SDS011;3009;43.224;27.976;2024-01-15T00:14:14;8.70;;;5.90;;
5965;SDS011;3009;43.224;27.976;2024-01-15T00:16:48;8.47;;;5.90;;
5965;SDS011;3009;43.224;27.976;2024-01-15T00:19:18;6.60;;;5.57;;
5965;SDS011;3009;43.224;27.976;2024-01-15T00:21:46;6.73;;;5.30;;
5965;SDS011;3009;43.224;27.976;2024-01-15T00:24:15;7.10;;;6.30;;
5965;SDS011;3009;43.224;27.976;2024-01-15T00:26:43;11.83;;;6.67;;
5965;SDS011;3009;43.224;27.976;2024-01-15T00:29:12;9.13;;;6.90;;
5965;SDS011;3009;43.224;27.976;2024-01-15T00:31:41;13.73;;;8.80;;
5965;SDS011;3009;43.224;27.976;2024-01-15T00:34:10;14.57;;;8.00;;
5965;SDS011;3009;43.224;27.976;2024-01-15T00:36:39;12.07;;;8.77;;
5965;SDS011;3009;43.224;27.976;2024-01-15T00:39:08;17.73;;;11.13;;
5965;SDS011;3009;43.224;27.976;2024-01-15T00:41:37;23.30;;;12.00;;
5965;SDS011;3009;43.224;27.976;2024-01-15T00:44:05;22.90;;;13.27;;
5965;SDS011;3009;43.224;27.976;2024-01-15T00:46:41;22.20;;;13.60;;
5965;SDS011;3009;43.224;27.976;2024-01-15T00:49:12;25.13;;;14.27;;
5965;SDS011;3009;43.224;27.976;2024-01-15T00:51:41;20.97;;;14.17;;
5965;SDS011;3009;43.224;27.976;2024-01-15T00:54:10;18.73;;;12.53;;
5965;SDS011;3009;43.224;27.976;2024-01-15T00:56:38;26.50;;;14.33;;
5965;SDS011;3009;43.224;27.976;2024-01-15T00:59:07;28.23;;;13.60;;
5965;SDS011;3009;43.224;27.976;2024-01-15T01:01:36;22.33;;;14.40;;
5965;SDS011;3009;43.224;27.976;2024-01-15T01:04:09;18.50;;;12.60;;
5965;SDS011;3009;43.224;27.976;2024-01-15T01:06:40;19.50;;;12.60;;
5965;SDS011;3009;43.224;27.976;2024-01-15T01:09:08;26.20;;;13.23;;
5965;SDS011;3009;43.224;27.976;2024-01-15T01:11:37;29.63;;;15.57;;
5965;SDS011;3009;43.224;27.976;2024-01-15T01:14:05;22.70;;;14.40;;
5965;SDS011;3009;43.224;27.976;2024-01-15T01:16:34;25.30;;;14.60;;
5965;SDS011;3009;43.224;27.976;2024-01-15T01:19:06;32.20;;;13.47;;
5965;SDS011;3009;43.224;27.976;2024-01-15T01:21:35;22.33;;;13.17;;
5965;SDS011;3009;43.224;27.976;2024-01-15T01:24:05;23.93;;;14.53;;
5965;SDS011;3009;43.224;27.976;2024-01-15T01:26:33;23.97;;;13.80;;
5965;SDS011;3009;43.224;27.976;2024-01-15T01:29:02;26.23;;;13.17;;
5965;SDS011;3009;43.224;27.976;2024-01-15T01:31:30;24.83;;;16.87;;
5965;SDS011;3009;43.224;27.976;2024-01-15T01:33:59;18.13;;;11.10;;
5965;SDS011;3009;43.224;27.976;2024-01-15T01:36:27;20.13;;;12.77;;
5965;SDS011;3009;43.224;27.976;2024-01-15T01:38:56;17.87;;;11.20;;
5965;SDS011;3009;43.224;27.976;2024-01-15T01:41:26;22.30;;;12.47;;
5965;SDS011;3009;43.224;27.976;2024-01-15T01:43:54;21.40;;;13.13;;
5965;SDS011;3009;43.224;27.976;2024-01-15T01:46:23;19.93;;;11.73;;
5965;SDS011;3009;43.224;27.976;2024-01-15T01:48:53;19.10;;;10.63;;
5965;SDS011;3009;43.224;27.976;2024-01-15T01:51:24;14.93;;;9.87;;
5965;SDS011;3009;43.224;27.976;2024-01-15T01:53:53;15.07;;;8.33;;
5965;SDS011;3009;43.224;27.976;2024-01-15T01:56:21;12.47;;;8.70;;
5965;SDS011;3009;43.224;27.976;2024-01-15T01:58:52;12.43;;;7.70;;
5965;SDS011;3009;43.224;27.976;2024-01-15T02:01:21;11.03;;;7.00;;
5965;SDS011;3009;43.224;27.976;2024-01-15T02:03:50;15.60;;;8.70;;
5965;SDS011;3009;43.224;27.976;2024-01-15T02:06:18;18.87;;;9.60;;
5965;SDS011;3009;43.224;27.976;2024-01-15T02:08:47;18.17;;;9.40;;
5965;SDS011;3009;43.224;27.976;2024-01-15T02:11:16;12.60;;;7.70;;
5965;SDS011;3009;43.224;27.976;2024-01-15T02:13:44;15.63;;;7.97;;
5965;SDS011;3009;43.224;27.976;2024-01-15T02:16:14;12.03;;;7.37;;
5965;SDS011;3009;43.224;27.976;2024-01-15T02:18:43;16.67;;;8.43;;
5965;SDS011;3009;43.224;27.976;2024-01-15T02:21:13;14.47;;;8.03;;
5965;SDS011;3009;43.224;27.976;2024-01-15T02:23:43;14.00;;;6.80;;
5965;SDS011;3009;43.224;27.976;2024-01-15T02:26:12;8.10;;;6.20;;
5965;SDS011;3009;43.224;27.976;2024-01-15T02:28:41;8.07;;;6.33;;
5965;SDS011;3009;43.224;27.976;2024-01-15T02:31:11;10.37;;;5.73;;
5965;SDS011;3009;43.224;27.976;2024-01-15T02:33:39;6.33;;;4.80;;
5965;SDS011;3009;43.224;27.976;2024-01-15T02:36:09;7.67;;;5.60;;
5965;SDS011;3009;43.224;27.976;2024-01-15T02:38:38;7.90;;;5.40;;
5965;SDS011;3009;43.224;27.976;2024-01-15T02:41:08;6.17;;;5.10;;
5965;SDS011;3009;43.224;27.976;2024-01-15T02:43:36;6.97;;;5.10;;
5965;SDS011;3009;43.224;27.976;2024-01-15T02:46:05;8.77;;;5.87;;
5965;SDS011;3009;43.224;27.976;2024-01-15T02:48:33;12.57;;;7.50;;
5965;SDS011;3009;43.224;27.976;2024-01-15T02:51:02;12.23;;;7.73;;
5965;SDS011;3009;43.224;27.976;2024-01-15T02:53:31;12.40;;;8.00;;
5965;SDS011;3009;43.224;27.976;2024-01-15T02:56:00;12.80;;;7.90;;
5965;SDS011;3009;43.224;27.976;2024-01-15T02:58:29;9.80;;;6.50;;
5965;SDS011;3009;43.224;27.976;2024-01-15T03:00:58;10.87;;;6.60;;
5965;SDS011;3009;43.224;27.976;2024-01-15T03:03:27;9.37;;;6.60;;
5965;SDS011;3009;43.224;27.976;2024-01-15T03:05:55;11.10;;;8.03;;
5965;SDS011;3009;43.224;27.976;2024-01-15T03:08:24;7.87;;;6.43;;
5965;SDS011;3009;43.224;27.976;2024-01-15T03:10:52;10.70;;;6.90;;
5965;SDS011;3009;43.224;27.976;2024-01-15T03:13:21;9.90;;;7.13;;
5965;SDS011;3009;43.224;27.976;2024-01-15T03:15:51;11.77;;;7.27;;
5965;SDS011;3009;43.224;27.976;2024-01-15T03:18:19;9.63;;;6.33;;
5965;SDS011;3009;43.224;27.976;2024-01-15T03:20:48;9.50;;;6.23;;
5965;SDS011;3009;43.224;27.976;2024-01-15T03:23:16;11.57;;;6.50;;
5965;SDS011;3009;43.224;27.976;2024-01-15T03:25:45;9.43;;;5.67;;
5965;SDS011;3009;43.224;27.976;2024-01-15T03:28:13;8.93;;;6.30;;
5965;SDS011;3009;43.224;27.976;2024-01-15T03:30:42;7.77;;;6.20;;
5965;SDS011;3009;43.224;27.976;2024-01-15T03:33:12;8.23;;;6.30;;
5965;SDS011;3009;43.224;27.976;2024-01-15T03:35:41;11.50;;;6.30;;
5965;SDS011;3009;43.224;27.976;2024-01-15T03:38:09;9.07;;;6.40;;
5965;SDS011;3009;43.224;27.976;2024-01-15T03:40:37;9.20;;;6.03;;
5965;SDS011;3009;43.224;27.976;2024-01-15T03:43:06;6.90;;;5.73;;
5965;SDS011;3009;43.224;27.976;2024-01-15T03:45:34;7.80;;;6.00;;
5965;SDS011;3009;43.224;27.976;2024-01-15T03:48:03;6.87;;;5.53;;
5965;SDS011;3009;43.224;27.976;2024-01-15T03:50:34;7.90;;;5.23;;
5965;SDS011;3009;43.224;27.976;2024-01-15T03:53:02;7.13;;;5.43;;
5965;SDS011;3009;43.224;27.976;2024-01-15T03:55:32;5.87;;;5.30;;
5965;SDS011;3009;43.224;27.976;2024-01-15T03:58:00;5.00;;;4.47;;
5965;SDS011;3009;43.224;27.976;2024-01-15T04:00:29;6.17;;;4.83;;
5965;SDS011;3009;43.224;27.976;2024-01-15T04:02:57;6.23;;;4.67;;
5965;SDS011;3009;43.224;27.976;2024-01-15T04:05:26;5.07;;;4.40;;
5965;SDS011;3009;43.224;27.976;2024-01-15T04:07:56;6.47;;;5.07;;
5965;SDS011;3009;43.224;27.976;2024-01-15T04:10:24;6.20;;;5.60;;
5965;SDS011;3009;43.224;27.976;2024-01-15T04:12:53;13.33;;;7.77;;
5965;SDS011;3009;43.224;27.976;2024-01-15T04:15:21;19.87;;;8.70;;
5965;SDS011;3009;43.224;27.976;2024-01-15T04:17:51;24.03;;;9.27;;
5965;SDS011;3009;43.224;27.976;2024-01-15T04:20:20;35.30;;;13.03;;
5965;SDS011;3009;43.224;27.976;2024-01-15T04:22:51;27.53;;;11.03;;
5965;SDS011;3009;43.224;27.976;2024-01-15T04:25:21;20.70;;;8.80;;
5965;SDS011;3009;43.224;27.976;2024-01-15T04:27:49;10.33;;;6.47;;
5965;SDS011;3009;43.224;27.976;2024-01-15T04:30:18;9.07;;;6.10;;
5965;SDS011;3009;43.224;27.976;2024-01-15T04:32:46;13.07;;;7.90;;
5965;SDS011;3009;43.224;27.976;2024-01-15T04:35:15;10.93;;;6.93;;
5965;SDS011;3009;43.224;27.976;2024-01-15T04:37:43;8.63;;;6.40;;
5965;SDS011;3009;43.224;27.976;2024-01-15T04:40:12;7.67;;;4.80;;
5965;SDS011;3009;43.224;27.976;2024-01-15T04:42:42;4.77;;;4.37;;
5965;SDS011;3009;43.224;27.976;2024-01-15T04:45:12;5.77;;;4.20;;
5965;SDS011;3009;43.224;27.976;2024-01-15T04:47:41;7.67;;;4.40;;
5965;SDS011;3009;43.224;27.976;2024-01-15T04:50:09;4.70;;;4.30;;
5965;SDS011;3009;43.224;27.976;2024-01-15T04:52:38;4.27;;;3.87;;
5965;SDS011;3009;43.224;27.976;2024-01-15T04:55:06;5.77;;;4.83;;
5965;SDS011;3009;43.224;27.976;2024-01-15T04:57:35;10.23;;;5.00;;
5965;SDS011;3009;43.224;27.976;2024-01-15T05:00:05;6.20;;;4.40;;
5965;SDS011;3009;43.224;27.976;2024-01-15T05:02:35;5.57;;;4.90;;
5965;SDS011;3009;43.224;27.976;2024-01-15T05:05:03;9.70;;;5.20;;
5965;SDS011;3009;43.224;27.976;2024-01-15T05:07:32;6.37;;;5.10;;
5965;SDS011;3009;43.224;27.976;2024-01-15T05:10:00;5.63;;;4.20;;
5965;SDS011;3009;43.224;27.976;2024-01-15T05:12:30;27.40;;;10.93;;
5965;SDS011;3009;43.224;27.976;2024-01-15T05:14:58;36.80;;;12.30;;
5965;SDS011;3009;43.224;27.976;2024-01-15T05:17:28;19.03;;;8.50;;
5965;SDS011;3009;43.224;27.976;2024-01-15T05:19:57;5.90;;;4.37;;
5965;SDS011;3009;43.224;27.976;2024-01-15T05:22:26;10.63;;;5.50;;
5965;SDS011;3009;43.224;27.976;2024-01-15T05:24:54;7.20;;;5.10;;
5965;SDS011;3009;43.224;27.976;2024-01-15T05:27:23;10.83;;;7.23;;
5965;SDS011;3009;43.224;27.976;2024-01-15T05:29:51;9.07;;;4.60;;
5965;SDS011;3009;43.224;27.976;2024-01-15T05:32:20;19.33;;;6.60;;
5965;SDS011;3009;43.224;27.976;2024-01-15T05:34:49;12.47;;;7.00;;
5965;SDS011;3009;43.224;27.976;2024-01-15T05:37:18;11.70;;;7.00;;
5965;SDS011;3009;43.224;27.976;2024-01-15T05:39:46;13.00;;;5.90;;
5965;SDS011;3009;43.224;27.976;2024-01-15T05:42:18;6.10;;;4.80;;
5965;SDS011;3009;43.224;27.976;2024-01-15T05:44:46;6.00;;;3.90;;
5965;SDS011;3009;43.224;27.976;2024-01-15T05:47:15;11.30;;;4.40;;
5965;SDS011;3009;43.224;27.976;2024-01-15T05:49:44;6.20;;;4.67;;
5965;SDS011;3009;43.224;27.976;2024-01-15T05:52:14;4.43;;;4.03;;
5965;SDS011;3009;43.224;27.976;2024-01-15T05:54:42;8.03;;;4.00;;
5965;SDS011;3009;43.224;27.976;2024-01-15T05:57:11;4.77;;;4.27;;
5965;SDS011;3009;43.224;27.976;2024-01-15T05:59:39;7.33;;;5.20;;
5965;SDS011;3009;43.224;27.976;2024-01-15T06:02:08;7.57;;;5.27;;
5965;SDS011;3009;43.224;27.976;2024-01-15T06:04:36;12.67;;;5.53;;
5965;SDS011;3009;43.224;27.976;2024-01-15T06:07:05;5.40;;;4.80;;
5965;SDS011;3009;43.224;27.976;2024-01-15T06:09:34;7.30;;;5.73;;
5965;SDS011;3009;43.224;27.976;2024-01-15T06:12:03;8.70;;;5.73;;
5965;SDS011;3009;43.224;27.976;2024-01-15T06:14:32;54.83;;;21.60;;
5965;SDS011;3009;43.224;27.976;2024-01-15T06:17:01;65.20;;;25.50;;
5965;SDS011;3009;43.224;27.976;2024-01-15T06:19:29;60.70;;;27.30;;
5965;SDS011;3009;43.224;27.976;2024-01-15T06:21:58;16.13;;;8.90;;
5965;SDS011;3009;43.224;27.976;2024-01-15T06:24:27;9.57;;;4.97;;
5965;SDS011;3009;43.224;27.976;2024-01-15T06:26:56;4.53;;;3.57;;
5965;SDS011;3009;43.224;27.976;2024-01-15T06:29:25;6.70;;;3.50;;
5965;SDS011;3009;43.224;27.976;2024-01-15T06:31:54;4.73;;;4.23;;
5965;SDS011;3009;43.224;27.976;2024-01-15T06:34:23;4.93;;;4.40;;
5965;SDS011;3009;43.224;27.976;2024-01-15T06:36:51;11.33;;;4.37;;
5965;SDS011;3009;43.224;27.976;2024-01-15T06:39:20;6.80;;;4.43;;
5965;SDS011;3009;43.224;27.976;2024-01-15T06:41:48;12.70;;;6.13;;
5965;SDS011;3009;43.224;27.976;2024-01-15T06:44:18;8.43;;;5.90;;
5965;SDS011;3009;43.224;27.976;2024-01-15T06:46:47;6.87;;;5.40;;
5965;SDS011;3009;43.224;27.976;2024-01-15T06:49:16;8.50;;;5.57;;
5965;SDS011;3009;43.224;27.976;2024-01-15T06:51:45;7.80;;;6.57;;
5965;SDS011;3009;43.224;27.976;2024-01-15T06:54:15;15.47;;;9.50;;
5965;SDS011;3009;43.224;27.976;2024-01-15T06:56:43;13.60;;;9.67;;
5965;SDS011;3009;43.224;27.976;2024-01-15T06:59:12;14.17;;;8.83;;
5965;SDS011;3009;43.224;27.976;2024-01-15T07:01:47;12.37;;;8.33;;
5965;SDS011;3009;43.224;27.976;2024-01-15T07:04:15;12.67;;;7.87;;
5965;SDS011;3009;43.224;27.976;2024-01-15T07:06:44;10.73;;;6.70;;
5965;SDS011;3009;43.224;27.976;2024-01-15T07:09:15;16.63;;;7.20;;
5965;SDS011;3009;43.224;27.976;2024-01-15T07:11:46;19.10;;;7.90;;
5965;SDS011;3009;43.224;27.976;2024-01-15T07:14:15;12.17;;;6.83;;
5965;SDS011;3009;43.224;27.976;2024-01-15T07:16:43;18.53;;;8.20;;
5965;SDS011;3009;43.224;27.976;2024-01-15T07:19:15;11.50;;;7.20;;
5965;SDS011;3009;43.224;27.976;2024-01-15T07:21:44;10.73;;;6.17;;
5965;SDS011;3009;43.224;27.976;2024-01-15T07:24:13;7.03;;;6.10;;
5965;SDS011;3009;43.224;27.976;2024-01-15T07:26:42;9.47;;;6.20;;
5965;SDS011;3009;43.224;27.976;2024-01-15T07:29:11;8.60;;;5.33;;
5965;SDS011;3009;43.224;27.976;2024-01-15T07:31:39;8.47;;;5.50;;
5965;SDS011;3009;43.224;27.976;2024-01-15T07:34:08;15.37;;;5.90;;
5965;SDS011;3009;43.224;27.976;2024-01-15T07:36:38;5.00;;;4.60;;
5965;SDS011;3009;43.224;27.976;2024-01-15T07:39:06;10.30;;;6.73;;
5965;SDS011;3009;43.224;27.976;2024-01-15T07:41:35;10.93;;;6.13;;
5965;SDS011;3009;43.224;27.976;2024-01-15T07:44:04;6.63;;;5.33;;
5965;SDS011;3009;43.224;27.976;2024-01-15T07:46:33;8.73;;;5.60;;
5965;SDS011;3009;43.224;27.976;2024-01-15T07:49:01;9.10;;;5.33;;
5965;SDS011;3009;43.224;27.976;2024-01-15T07:51:32;22.03;;;13.37;;
5965;SDS011;3009;43.224;27.976;2024-01-15T07:54:02;35.23;;;14.10;;
5965;SDS011;3009;43.224;27.976;2024-01-15T07:56:31;24.93;;;10.63;;
5965;SDS011;3009;43.224;27.976;2024-01-15T07:58:59;16.63;;;11.27;;
5965;SDS011;3009;43.224;27.976;2024-01-15T08:01:27;18.30;;;9.97;;
5965;SDS011;3009;43.224;27.976;2024-01-15T08:03:56;16.23;;;9.13;;
5965;SDS011;3009;43.224;27.976;2024-01-15T08:06:25;22.43;;;9.50;;
5965;SDS011;3009;43.224;27.976;2024-01-15T08:08:53;31.47;;;10.20;;
5965;SDS011;3009;43.224;27.976;2024-01-15T08:11:23;13.90;;;9.83;;
5965;SDS011;3009;43.224;27.976;2024-01-15T08:13:52;16.33;;;10.10;;
5965;SDS011;3009;43.224;27.976;2024-01-15T08:16:20;22.40;;;13.20;;
5965;SDS011;3009;43.224;27.976;2024-01-15T08:18:50;25.07;;;13.70;;
5965;SDS011;3009;43.224;27.976;2024-01-15T08:21:19;23.00;;;11.77;;
5965;SDS011;3009;43.224;27.976;2024-01-15T08:23:48;12.27;;;8.90;;
5965;SDS011;3009;43.224;27.976;2024-01-15T08:26:16;13.60;;;8.13;;
5965;SDS011;3009;43.224;27.976;2024-01-15T08:28:46;8.97;;;6.93;;
5965;SDS011;3009;43.224;27.976;2024-01-15T08:31:14;10.37;;;7.10;;
5965;SDS011;3009;43.224;27.976;2024-01-15T08:33:43;11.00;;;7.83;;
5965;SDS011;3009;43.224;27.976;2024-01-15T08:36:12;11.57;;;7.60;;
5965;SDS011;3009;43.224;27.976;2024-01-15T08:38:40;12.87;;;7.33;;
5965;SDS011;3009;43.224;27.976;2024-01-15T08:41:09;10.00;;;7.40;;
5965;SDS011;3009;43.224;27.976;2024-01-15T08:43:38;13.50;;;6.93;;
5965;SDS011;3009;43.224;27.976;2024-01-15T08:46:08;14.80;;;8.37;;
5965;SDS011;3009;43.224;27.976;2024-01-15T08:48:37;19.47;;;8.73;;
5965;SDS011;3009;43.224;27.976;2024-01-15T08:51:06;9.80;;;7.70;;
5965;SDS011;3009;43.224;27.976;2024-01-15T08:53:36;15.50;;;8.43;;
5965;SDS011;3009;43.224;27.976;2024-01-15T08:56:05;11.30;;;8.80;;
5965;SDS011;3009;43.224;27.976;2024-01-15T08:58:35;15.17;;;8.97;;
5965;SDS011;3009;43.224;27.976;2024-01-15T09:01:03;21.60;;;9.03;;
5965;SDS011;3009;43.224;27.976;2024-01-15T09:03:34;12.70;;;8.40;;
5965;SDS011;3009;43.224;27.976;2024-01-15T09:06:03;17.80;;;9.20;;
5965;SDS011;3009;43.224;27.976;2024-01-15T09:08:32;18.17;;;8.57;;
5965;SDS011;3009;43.224;27.976;2024-01-15T09:11:01;14.90;;;8.97;;
5965;SDS011;3009;43.224;27.976;2024-01-15T09:13:30;12.90;;;8.13;;
5965;SDS011;3009;43.224;27.976;2024-01-15T09:15:58;18.43;;;9.50;;
5965;SDS011;3009;43.224;27.976;2024-01-15T09:18:28;11.77;;;8.50;;
5965;SDS011;3009;43.224;27.976;2024-01-15T09:20:59;10.37;;;8.03;;
5965;SDS011;3009;43.224;27.976;2024-01-15T09:23:27;12.90;;;8.50;;
5965;SDS011;3009;43.224;27.976;2024-01-15T09:25:56;16.27;;;9.83;;
5965;SDS011;3009;43.224;27.976;2024-01-15T09:28:24;15.37;;;8.73;;
5965;SDS011;3009;43.224;27.976;2024-01-15T09:30:53;17.87;;;9.27;;
5965;SDS011;3009;43.224;27.976;2024-01-15T09:33:21;12.07;;;8.53;;
5965;SDS011;3009;43.224;27.976;2024-01-15T09:35:50;11.63;;;8.03;;
5965;SDS011;3009;43.224;27.976;2024-01-15T09:38:20;14.93;;;9.00;;
5965;SDS011;3009;43.224;27.976;2024-01-15T09:40:50;19.20;;;8.80;;
5965;SDS011;3009;43.224;27.976;2024-01-15T09:43:19;17.93;;;8.67;;
5965;SDS011;3009;43.224;27.976;2024-01-15T09:45:49;12.30;;;7.97;;
5965;SDS011;3009;43.224;27.976;2024-01-15T09:48:18;12.97;;;8.77;;
5965;SDS011;3009;43.224;27.976;2024-01-15T09:50:47;13.50;;;8.33;;
5965;SDS011;3009;43.224;27.976;2024-01-15T09:53:16;15.07;;;9.17;;
5965;SDS011;3009;43.224;27.976;2024-01-15T09:55:47;11.70;;;7.70;;
5965;SDS011;3009;43.224;27.976;2024-01-15T09:58:18;15.03;;;8.70;;
5965;SDS011;3009;43.224;27.976;2024-01-15T10:00:47;14.87;;;9.23;;
5965;SDS011;3009;43.224;27.976;2024-01-15T10:03:17;12.90;;;8.60;;
5965;SDS011;3009;43.224;27.976;2024-01-15T10:05:45;16.53;;;8.83;;
5965;SDS011;3009;43.224;27.976;2024-01-15T10:08:14;18.40;;;9.43;;
5965;SDS011;3009;43.224;27.976;2024-01-15T10:10:43;14.53;;;8.83;;
5965;SDS011;3009;43.224;27.976;2024-01-15T10:13:13;14.43;;;8.90;;
5965;SDS011;3009;43.224;27.976;2024-01-15T10:15:45;13.37;;;8.60;;
5965;SDS011;3009;43.224;27.976;2024-01-15T10:18:15;12.90;;;8.20;;
5965;SDS011;3009;43.224;27.976;2024-01-15T10:20:44;13.90;;;8.57;;
5965;SDS011;3009;43.224;27.976;2024-01-15T10:23:13;14.97;;;8.93;;
5965;SDS011;3009;43.224;27.976;2024-01-15T10:25:42;13.00;;;9.23;;
5965;SDS011;3009;43.224;27.976;2024-01-15T10:28:11;11.57;;;8.43;;
5965;SDS011;3009;43.224;27.976;2024-01-15T10:30:43;15.43;;;9.13;;
5965;SDS011;3009;43.224;27.976;2024-01-15T10:33:11;16.37;;;9.43;;
5965;SDS011;3009;43.224;27.976;2024-01-15T10:35:42;10.20;;;7.60;;
5965;SDS011;3009;43.224;27.976;2024-01-15T10:38:10;13.40;;;7.20;;
5965;SDS011;3009;43.224;27.976;2024-01-15T10:40:39;13.53;;;8.03;;
5965;SDS011;3009;43.224;27.976;2024-01-15T10:43:09;11.63;;;8.83;;
5965;SDS011;3009;43.224;27.976;2024-01-15T10:45:39;13.07;;;8.07;;
5965;SDS011;3009;43.224;27.976;2024-01-15T10:48:08;12.40;;;8.60;;
5965;SDS011;3009;43.224;27.976;2024-01-15T10:50:37;10.40;;;7.40;;
5965;SDS011;3009;43.224;27.976;2024-01-15T10:53:05;13.33;;;9.77;;
5965;SDS011;3009;43.224;27.976;2024-01-15T10:55:36;8.47;;;7.67;;
5965;SDS011;3009;43.224;27.976;2024-01-15T10:58:06;12.20;;;8.27;;
5965;SDS011;3009;43.224;27.976;2024-01-15T11:00:35;13.87;;;8.30;;
5965;SDS011;3009;43.224;27.976;2024-01-15T11:03:06;14.23;;;9.23;;
5965;SDS011;3009;43.224;27.976;2024-01-15T11:05:36;12.50;;;9.10;;
5965;SDS011;3009;43.224;27.976;2024-01-15T11:08:06;11.23;;;8.20;;
5965;SDS011;3009;43.224;27.976;2024-01-15T11:10:38;12.33;;;8.73;;
5965;SDS011;3009;43.224;27.976;2024-01-15T11:13:08;10.37;;;7.83;;
5965;SDS011;3009;43.224;27.976;2024-01-15T11:15:56;16.03;;;9.93;;
5965;SDS011;3009;43.224;27.976;2024-01-15T11:18:28;12.77;;;9.40;;
5965;SDS011;3009;43.224;27.976;2024-01-15T11:23:49;12.37;;;9.20;;
5965;SDS011;3009;43.224;27.976;2024-01-15T11:26:30;13.17;;;8.73;;
5965;SDS011;3009;43.224;27.976;2024-01-15T11:29:01;15.63;;;10.07;;
5965;SDS011;3009;43.224;27.976;2024-01-15T11:37:21;11.73;;;9.23;;
5965;SDS011;3009;43.224;27.976;2024-01-15T11:39:51;15.97;;;10.30;;
5965;SDS011;3009;43.224;27.976;2024-01-15T11:42:21;14.10;;;9.93;;
5965;SDS011;3009;43.224;27.976;2024-01-15T11:44:50;13.23;;;10.43;;
5965;SDS011;3009;43.224;27.976;2024-01-15T11:47:31;15.07;;;10.27;;
5965;SDS011;3009;43.224;27.976;2024-01-15T11:50:21;16.10;;;11.00;;
5965;SDS011;3009;43.224;27.976;2024-01-15T11:52:51;17.03;;;10.10;;
5965;SDS011;3009;43.224;27.976;2024-01-15T11:55:33;16.97;;;10.13;;
5965;SDS011;3009;43.224;27.976;2024-01-15T11:58:04;16.20;;;10.20;;
5965;SDS011;3009;43.224;27.976;2024-01-15T12:00:39;14.13;;;9.90;;
5965;SDS011;3009;43.224;27.976;2024-01-15T12:03:09;20.87;;;11.70;;
5965;SDS011;3009;43.224;27.976;2024-01-15T12:05:39;18.03;;;11.27;;
5965;SDS011;3009;43.224;27.976;2024-01-15T12:08:09;14.00;;;9.30;;
5965;SDS011;3009;43.224;27.976;2024-01-15T12:10:38;17.23;;;11.10;;
5965;SDS011;3009;43.224;27.976;2024-01-15T12:13:10;16.43;;;10.53;;
5965;SDS011;3009;43.224;27.976;2024-01-15T12:15:40;18.80;;;9.57;;
5965;SDS011;3009;43.224;27.976;2024-01-15T12:18:11;14.83;;;9.67;;
5965;SDS011;3009;43.224;27.976;2024-01-15T12:20:42;14.80;;;9.80;;
5965;SDS011;3009;43.224;27.976;2024-01-15T12:23:14;21.23;;;10.37;;
5965;SDS011;3009;43.224;27.976;2024-01-15T12:25:43;14.20;;;10.77;;
5965;SDS011;3009;43.224;27.976;2024-01-15T12:28:12;16.67;;;9.80;;
5965;SDS011;3009;43.224;27.976;2024-01-15T12:30:41;13.13;;;10.20;;
5965;SDS011;3009;43.224;27.976;2024-01-15T12:33:11;18.13;;;10.67;;
5965;SDS011;3009;43.224;27.976;2024-01-15T12:35:39;18.77;;;10.50;;
5965;SDS011;3009;43.224;27.976;2024-01-15T12:38:10;15.93;;;10.30;;
5965;SDS011;3009;43.224;27.976;2024-01-15T12:40:39;17.30;;;11.47;;
5965;SDS011;3009;43.224;27.976;2024-01-15T12:43:09;15.90;;;9.63;;
5965;SDS011;3009;43.224;27.976;2024-01-15T12:45:38;16.97;;;10.87;;
5965;SDS011;3009;43.224;27.976;2024-01-15T12:48:06;17.50;;;11.00;;
5965;SDS011;3009;43.224;27.976;2024-01-15T12:50:35;20.50;;;10.97;;
5965;SDS011;3009;43.224;27.976;2024-01-15T12:53:05;17.07;;;10.93;;
5965;SDS011;3009;43.224;27.976;2024-01-15T12:55:35;15.93;;;10.10;;
5965;SDS011;3009;43.224;27.976;2024-01-15T12:58:03;15.40;;;11.10;;
5965;SDS011;3009;43.224;27.976;2024-01-15T13:00:32;55.03;;;31.60;;
5965;SDS011;3009;43.224;27.976;2024-01-15T13:03:00;27.73;;;17.90;;
5965;SDS011;3009;43.224;27.976;2024-01-15T13:05:31;20.83;;;13.30;;
5965;SDS011;3009;43.224;27.976;2024-01-15T13:08:01;20.53;;;11.50;;
5965;SDS011;3009;43.224;27.976;2024-01-15T13:10:31;18.43;;;12.80;;
5965;SDS011;3009;43.224;27.976;2024-01-15T13:12:59;21.27;;;12.67;;
5965;SDS011;3009;43.224;27.976;2024-01-15T13:15:28;16.40;;;10.43;;
5965;SDS011;3009;43.224;27.976;2024-01-15T13:17:58;16.17;;;10.80;;
5965;SDS011;3009;43.224;27.976;2024-01-15T13:20:27;10.10;;;8.20;;
5965;SDS011;3009;43.224;27.976;2024-01-15T13:22:55;10.03;;;8.30;;
5965;SDS011;3009;43.224;27.976;2024-01-15T13:25:24;11.67;;;8.17;;
5965;SDS011;3009;43.224;27.976;2024-01-15T13:27:54;9.33;;;6.90;;
5965;SDS011;3009;43.224;27.976;2024-01-15T13:30:22;10.33;;;7.03;;
5965;SDS011;3009;43.224;27.976;2024-01-15T13:32:51;10.17;;;7.33;;
5965;SDS011;3009;43.224;27.976;2024-01-15T13:35:20;10.93;;;7.37;;
5965;SDS011;3009;43.224;27.976;2024-01-15T13:37:49;15.93;;;8.13;;
5965;SDS011;3009;43.224;27.976;2024-01-15T13:40:17;12.03;;;7.60;;
5965;SDS011;3009;43.224;27.976;2024-01-15T13:42:46;14.93;;;7.87;;
5965;SDS011;3009;43.224;27.976;2024-01-15T13:45:17;14.10;;;7.13;;
5965;SDS011;3009;43.224;27.976;2024-01-15T13:47:47;16.43;;;7.73;;
5965;SDS011;3009;43.224;27.976;2024-01-15T13:50:15;13.07;;;7.63;;
5965;SDS011;3009;43.224;27.976;2024-01-15T13:52:44;10.50;;;7.27;;
5965;SDS011;3009;43.224;27.976;2024-01-15T13:55:12;13.47;;;7.90;;
5965;SDS011;3009;43.224;27.976;2024-01-15T13:57:41;9.10;;;6.90;;
5965;SDS011;3009;43.224;27.976;2024-01-15T14:00:10;12.43;;;8.00;;
5965;SDS011;3009;43.224;27.976;2024-01-15T14:02:41;12.43;;;7.73;;
5965;SDS011;3009;43.224;27.976;2024-01-15T14:05:09;11.10;;;7.90;;
5965;SDS011;3009;43.224;27.976;2024-01-15T14:07:40;13.30;;;7.30;;
5965;SDS011;3009;43.224;27.976;2024-01-15T14:10:09;9.23;;;6.90;;
5965;SDS011;3009;43.224;27.976;2024-01-15T14:12:38;11.93;;;7.60;;
5965;SDS011;3009;43.224;27.976;2024-01-15T14:15:07;14.53;;;7.93;;
5965;SDS011;3009;43.224;27.976;2024-01-15T14:17:36;16.53;;;8.23;;
5965;SDS011;3009;43.224;27.976;2024-01-15T14:20:07;12.77;;;9.00;;
5965;SDS011;3009;43.224;27.976;2024-01-15T14:22:37;11.80;;;8.90;;
5965;SDS011;3009;43.224;27.976;2024-01-15T14:25:05;11.43;;;7.83;;
5965;SDS011;3009;43.224;27.976;2024-01-15T14:27:35;21.80;;;8.50;;
5965;SDS011;3009;43.224;27.976;2024-01-15T14:30:04;15.07;;;7.83;;
5965;SDS011;3009;43.224;27.976;2024-01-15T14:32:35;18.83;;;7.10;;
5965;SDS011;3009;43.224;27.976;2024-01-15T14:35:04;14.30;;;7.13;;
5965;SDS011;3009;43.224;27.976;2024-01-15T14:37:36;10.67;;;7.83;;
5965;SDS011;3009;43.224;27.976;2024-01-15T14:40:05;8.90;;;7.00;;
5965;SDS011;3009;43.224;27.976;2024-01-15T14:42:36;12.07;;;8.37;;
5965;SDS011;3009;43.224;27.976;2024-01-15T14:45:05;22.57;;;8.43;;
5965;SDS011;3009;43.224;27.976;2024-01-15T14:47:39;12.23;;;8.27;;
5965;SDS011;3009;43.224;27.976;2024-01-15T14:50:08;13.67;;;9.40;;
5965;SDS011;3009;43.224;27.976;2024-01-15T14:52:40;17.80;;;9.87;;
5965;SDS011;3009;43.224;27.976;2024-01-15T14:55:11;19.30;;;10.50;;
5965;SDS011;3009;43.224;27.976;2024-01-15T14:57:40;18.20;;;10.40;;
5965;SDS011;3009;43.224;27.976;2024-01-15T15:00:08;17.37;;;9.60;;
5965;SDS011;3009;43.224;27.976;2024-01-15T15:02:40;13.93;;;9.33;;
5965;SDS011;3009;43.224;27.976;2024-01-15T15:05:09;13.77;;;8.70;;
5965;SDS011;3009;43.224;27.976;2024-01-15T15:07:41;9.23;;;8.00;;
5965;SDS011;3009;43.224;27.976;2024-01-15T15:10:10;14.43;;;9.10;;